Terminal Aerodrome Forecast
Issued by NWS

Home | Current Version | Previous Version | Text Only | Print | Product List | Glossary On
Versions: 1 2 3 4 5 6 7 8 9 10 11 12 13
000
FTUS42 TJSJ 061700 RRA
TAFJMZ
TAF
TJMZ 061740Z 0618/0718 11007KT P6SM SCT040
     FM061830 24010KT P6SM SCT040
     FM062200 06006KT P6SM SCT025 SCT040
     FM071530 27010KT P6SM SCT025 BKN040
      AMD NOT SKED 0622/0715=

USA.gov is the U.S. government's official web portal to all federal, state and local government web resources and services.